Unionville, Ohio
Current Conditions -  °F | °C
As of 11:13 PM on Thursday 27 Nov 2014 (Local Time) from KMRT Reporting Station
Overcast Overcast  
Wind Chill: 16°   Ceiling: 2100
Heat Index: 28°   Visibility: 10mi
Dew Point: 21°   Wind: 14mph
Humidity: 76%   Direction: 300°WNW
Pressure: 30.32"   Gusts: 18mph
Location:  40.14°N, 83.34°W
Report Text: KMRT 280413Z AUTO 30012G16KT 10SM OVC021 M02/M06 A3032 RMK AO2 T10251062
Loading
Personal Weather Stations






























Interactive Weather Map New forecast layout! Learn more

10-Day Weather Forecast

Advertisements
Track Severe Weather on mobile